createdAt,value
2023-01-28T00:01:06.733Z,7.76
2023-01-28T00:03:35.273Z,7.72
2023-01-28T00:06:04.034Z,7.73
2023-01-28T00:08:35.839Z,7.75
2023-01-28T00:11:04.379Z,7.78
2023-01-28T00:13:32.227Z,7.78
2023-01-28T00:16:00.547Z,7.77
2023-01-28T00:18:28.374Z,7.77
2023-01-28T00:20:59.847Z,7.73
2023-01-28T00:23:27.975Z,7.73
2023-01-28T00:25:59.274Z,7.73
2023-01-28T00:28:26.986Z,7.74
2023-01-28T00:30:55.979Z,7.70
2023-01-28T00:33:24.023Z,7.61
2023-01-28T00:35:59.016Z,7.60
2023-01-28T00:38:26.718Z,7.61
2023-01-28T00:40:54.598Z,7.60
2023-01-28T00:43:23.641Z,7.66
2023-01-28T00:45:52.504Z,7.60
2023-01-28T00:48:20.433Z,7.62
2023-01-28T00:50:49.295Z,7.63
2023-01-28T00:53:17.224Z,7.61
2023-01-28T00:55:45.019Z,7.56
2023-01-28T00:58:12.807Z,7.53
2023-01-28T01:00:43.212Z,7.50
2023-01-28T01:03:10.882Z,7.52
2023-01-28T01:05:38.699Z,7.43
2023-01-28T01:08:06.928Z,7.52
2023-01-28T01:10:41.906Z,7.47
2023-01-28T01:13:10.140Z,7.41
2023-01-28T01:15:37.979Z,7.38
2023-01-28T01:18:07.404Z,7.30
2023-01-28T01:20:39.958Z,7.22
2023-01-28T01:23:07.815Z,7.20
2023-01-28T01:25:35.477Z,7.02
2023-01-28T01:28:05.989Z,7.21
2023-01-28T01:30:33.657Z,7.16
2023-01-28T01:33:03.476Z,7.22
2023-01-28T01:35:32.546Z,7.15
2023-01-28T01:38:00.408Z,7.22
2023-01-28T01:40:29.869Z,7.22
2023-01-28T01:42:57.836Z,7.24
2023-01-28T01:45:25.525Z,7.22
2023-01-28T01:47:57.274Z,6.96
2023-01-28T01:50:26.717Z,7.32
2023-01-28T01:52:57.292Z,7.30
2023-01-28T01:55:26.954Z,7.04
2023-01-28T01:57:56.058Z,7.42
2023-01-28T02:00:26.783Z,7.34
2023-01-28T02:02:54.735Z,7.22
2023-01-28T02:05:23.078Z,7.31
2023-01-28T02:07:52.070Z,7.29
2023-01-28T02:10:21.313Z,7.23
2023-01-28T02:12:51.502Z,7.34
2023-01-28T02:15:20.391Z,7.34
2023-01-28T02:17:48.550Z,7.34
2023-01-28T02:20:19.230Z,7.30
2023-01-28T02:23:17.142Z,7.30
2023-01-28T02:26:02.071Z,7.28
2023-01-28T02:28:33.564Z,7.23
2023-01-28T02:31:04.765Z,7.07
2023-01-28T02:33:36.019Z,7.34
2023-01-28T02:36:07.451Z,7.32
2023-01-28T02:38:37.428Z,7.20
2023-01-28T02:41:06.886Z,7.25
2023-01-28T02:43:36.886Z,7.24
2023-01-28T02:46:31.783Z,7.18
2023-01-28T02:48:59.586Z,7.18
2023-01-28T02:51:32.983Z,7.17
2023-01-28T02:54:01.657Z,7.11
2023-01-28T02:56:31.209Z,7.03
2023-01-28T02:59:22.887Z,6.83
2023-01-28T03:01:50.626Z,6.96
2023-01-28T03:04:20.976Z,6.95
2023-01-28T03:06:51.260Z,6.99
2023-01-28T03:09:24.733Z,6.92
2023-01-28T03:12:14.277Z,6.97
2023-01-28T03:15:01.425Z,6.94
2023-01-28T03:17:48.424Z,6.94
2023-01-28T03:20:34.092Z,6.95
2023-01-28T03:23:21.437Z,6.87
2023-01-28T03:26:09.296Z,6.84
2023-01-28T03:28:54.354Z,6.89
2023-01-28T03:31:41.028Z,6.83
2023-01-28T03:34:27.176Z,6.87
2023-01-28T03:36:54.853Z,6.50
2023-01-28T03:39:23.923Z,6.69
2023-01-28T03:42:01.541Z,6.89
2023-01-28T03:44:46.671Z,6.90
2023-01-28T03:47:15.811Z,6.91
2023-01-28T03:49:45.632Z,6.94
2023-01-28T03:52:13.488Z,6.98
2023-01-28T03:54:41.257Z,7.02
2023-01-28T03:57:09.119Z,7.02
2023-01-28T03:59:36.875Z,6.97
2023-01-28T04:02:05.440Z,6.97
2023-01-28T04:04:34.620Z,6.94
2023-01-28T04:07:02.309Z,6.94
2023-01-28T04:09:30.106Z,6.75
2023-01-28T04:11:57.815Z,6.91
2023-01-28T04:14:25.619Z,6.77
2023-01-28T04:16:54.824Z,6.92
2023-01-28T04:19:22.596Z,6.87
2023-01-28T04:21:53.976Z,6.87
2023-01-28T04:24:21.854Z,6.81
2023-01-28T04:26:49.713Z,6.87
2023-01-28T04:29:17.413Z,6.59
2023-01-28T04:31:46.458Z,6.90
2023-01-28T04:34:14.191Z,6.90
2023-01-28T04:36:41.956Z,6.92
2023-01-28T04:39:11.070Z,6.88
2023-01-28T04:41:38.784Z,6.92
2023-01-28T04:44:06.484Z,6.95
2023-01-28T04:46:34.286Z,6.95
2023-01-28T04:49:02.296Z,6.99
2023-01-28T04:51:30.075Z,6.98
2023-01-28T04:53:57.831Z,6.80
2023-01-28T04:56:26.999Z,7.00
2023-01-28T04:58:54.713Z,6.98
2023-01-28T05:01:22.459Z,6.95
2023-01-28T05:03:52.076Z,6.90
2023-01-28T05:06:19.779Z,6.92
2023-01-28T05:08:47.506Z,6.93
2023-01-28T05:11:15.330Z,6.90
2023-01-28T05:13:44.585Z,6.82
2023-01-28T05:16:12.519Z,6.90
2023-01-28T05:18:40.452Z,6.88
2023-01-28T05:23:42.472Z,6.85
2023-01-28T05:26:10.132Z,6.82
2023-01-28T05:28:37.966Z,6.78
2023-01-28T05:31:07.576Z,6.81
2023-01-28T05:33:35.469Z,6.84
2023-01-28T05:36:03.163Z,6.83
2023-01-28T05:38:31.252Z,6.78
2023-01-28T05:40:59.023Z,6.78
2023-01-28T05:43:26.809Z,6.80
2023-01-28T05:45:54.717Z,6.82
2023-01-28T05:48:24.101Z,6.88
2023-01-28T05:50:51.840Z,6.87
2023-01-28T05:53:19.607Z,6.87
2023-01-28T05:55:49.156Z,6.80
2023-01-28T05:58:17.146Z,6.87
2023-01-28T06:00:44.836Z,6.84
2023-01-28T06:03:12.618Z,6.81
2023-01-28T06:05:41.663Z,6.78
2023-01-28T06:08:10.224Z,6.72
2023-01-28T06:10:37.912Z,6.73
2023-01-28T06:13:05.717Z,6.72
2023-01-28T06:15:33.504Z,6.67
2023-01-28T06:18:02.398Z,6.62
2023-01-28T06:20:30.079Z,6.61
2023-01-28T06:22:59.094Z,6.60
2023-01-28T06:25:27.040Z,6.65
2023-01-28T06:27:54.956Z,6.66
2023-01-28T06:30:22.698Z,6.71
2023-01-28T06:32:55.360Z,6.72
2023-01-28T06:35:23.185Z,6.68
2023-01-28T06:37:50.819Z,6.64
2023-01-28T06:40:20.227Z,6.63
2023-01-28T06:42:47.872Z,6.70
2023-01-28T06:45:15.740Z,6.71
2023-01-28T06:47:43.400Z,6.62
2023-01-28T06:50:12.635Z,6.68
2023-01-28T06:52:41.330Z,6.62
2023-01-28T06:55:09.658Z,6.69
2023-01-28T06:57:40.345Z,6.66
2023-01-28T07:00:10.495Z,6.71
2023-01-28T07:02:38.213Z,6.70
2023-01-28T07:05:06.535Z,6.74
2023-01-28T07:07:34.288Z,6.73
2023-01-28T07:10:02.132Z,6.71
2023-01-28T07:12:29.822Z,6.70
2023-01-28T07:14:58.964Z,6.67
2023-01-28T07:17:26.726Z,6.65
2023-01-28T07:19:54.378Z,6.63
2023-01-28T07:22:22.039Z,6.66
2023-01-28T07:24:50.175Z,6.65
2023-01-28T07:27:17.857Z,6.68
2023-01-28T07:29:45.496Z,6.71
2023-01-28T07:32:14.652Z,6.69
2023-01-28T07:34:43.155Z,6.69
2023-01-28T07:37:10.887Z,6.70
2023-01-28T07:39:38.625Z,6.70
2023-01-28T07:42:06.616Z,6.71
2023-01-28T07:44:35.828Z,6.71
2023-01-28T07:47:03.709Z,6.67
2023-01-28T07:49:32.927Z,6.62
2023-01-28T07:52:00.684Z,6.64
2023-01-28T07:54:28.528Z,6.62
2023-01-28T07:56:56.302Z,6.64
2023-01-28T07:59:24.210Z,6.68
2023-01-28T08:01:54.934Z,6.75
2023-01-28T08:04:23.234Z,6.75
2023-01-28T08:06:52.613Z,6.78
2023-01-28T08:09:20.551Z,6.83
2023-01-28T08:11:48.378Z,6.84
2023-01-28T08:14:16.286Z,6.79
2023-01-28T08:16:44.398Z,6.75
2023-01-28T08:19:12.305Z,6.78
2023-01-28T08:21:40.092Z,6.72
2023-01-28T08:24:09.678Z,6.74
2023-01-28T08:26:37.542Z,6.76
2023-01-28T08:29:05.619Z,6.78
2023-01-28T08:31:33.483Z,6.84
2023-01-28T08:34:02.316Z,6.85
2023-01-28T08:36:30.211Z,6.90
2023-01-28T08:38:57.934Z,6.95
2023-01-28T08:41:29.228Z,6.93
2023-01-28T08:43:56.876Z,6.97
2023-01-28T08:46:25.735Z,6.99
2023-01-28T08:48:53.446Z,7.02
2023-01-28T08:51:21.212Z,6.96
2023-01-28T08:53:48.842Z,6.94
2023-01-28T08:56:16.675Z,6.86
2023-01-28T08:58:46.033Z,6.94
2023-01-28T09:01:13.850Z,6.87
2023-01-28T09:03:41.561Z,6.95
2023-01-28T09:06:10.612Z,6.77
2023-01-28T09:08:38.351Z,6.98
2023-01-28T09:11:06.309Z,7.00
2023-01-28T09:13:33.988Z,6.38
2023-01-28T09:16:05.498Z,6.98
2023-01-28T09:18:33.409Z,6.96
2023-01-28T09:21:01.100Z,7.04
2023-01-28T09:24:06.370Z,7.04
2023-01-28T09:26:34.539Z,6.90
2023-01-28T09:29:02.479Z,6.72
2023-01-28T09:31:31.850Z,6.93
2023-01-28T09:33:59.681Z,6.96
2023-01-28T09:36:27.328Z,6.98
2023-01-28T09:38:55.327Z,6.64
2023-01-28T09:41:26.714Z,6.97
2023-01-28T09:44:04.714Z,6.94
2023-01-28T09:46:34.967Z,6.89
2023-01-28T09:49:05.136Z,6.89
2023-01-28T09:51:34.954Z,7.06
2023-01-28T09:54:04.775Z,7.11
2023-01-28T09:56:33.559Z,7.17
2023-01-28T09:59:01.362Z,6.98
2023-01-28T10:01:39.931Z,7.19
2023-01-28T10:04:13.612Z,7.16
2023-01-28T10:06:46.893Z,7.14
2023-01-28T10:09:22.624Z,6.86
2023-01-28T10:11:57.671Z,7.15
2023-01-28T10:14:29.844Z,7.16
2023-01-28T10:17:01.632Z,7.14
2023-01-28T10:19:31.191Z,7.07
2023-01-28T10:22:01.573Z,7.28
2023-01-28T10:24:31.307Z,7.20
2023-01-28T10:26:59.203Z,7.26
2023-01-28T10:29:28.184Z,7.09
2023-01-28T10:31:56.975Z,7.14
2023-01-28T10:34:26.656Z,7.15
2023-01-28T10:36:55.632Z,7.08
2023-01-28T10:39:24.642Z,7.01
2023-01-28T10:41:58.263Z,7.08
2023-01-28T10:44:32.006Z,7.05
2023-01-28T10:47:03.311Z,7.08
2023-01-28T10:49:33.020Z,7.20
2023-01-28T10:52:00.875Z,7.26
2023-01-28T10:54:29.484Z,7.02
2023-01-28T10:56:58.776Z,7.46
2023-01-28T10:59:27.714Z,7.54
2023-01-28T11:01:56.209Z,7.43
2023-01-28T11:04:25.381Z,7.66
2023-01-28T11:06:59.112Z,7.74
2023-01-28T11:09:32.439Z,7.78
2023-01-28T11:12:14.345Z,7.82
2023-01-28T11:14:50.529Z,7.80
2023-01-28T11:17:29.263Z,7.72
2023-01-28T11:19:59.572Z,7.44
2023-01-28T11:22:54.571Z,7.59
2023-01-28T11:25:27.945Z,7.70
2023-01-28T11:28:06.243Z,7.75
2023-01-28T11:33:06.154Z,7.43
2023-01-28T11:35:33.925Z,7.82
2023-01-28T11:38:03.212Z,7.77
2023-01-28T11:40:31.037Z,7.65
2023-01-28T11:42:59.910Z,7.63
2023-01-28T11:45:33.933Z,7.45
2023-01-28T11:48:08.015Z,7.34
2023-01-28T11:50:41.085Z,7.28
2023-01-28T11:53:53.387Z,7.40
2023-01-28T11:56:28.499Z,7.39
2023-01-28T11:59:04.779Z,7.49
2023-01-28T12:01:40.892Z,7.51
2023-01-28T12:04:24.990Z,7.59
2023-01-28T12:07:05.517Z,7.64
2023-01-28T12:09:40.555Z,7.52
2023-01-28T12:12:20.820Z,7.36
2023-01-28T12:15:05.282Z,7.29
2023-01-28T12:17:38.201Z,7.60
2023-01-28T12:20:11.493Z,7.37
2023-01-28T12:23:06.680Z,7.47
2023-01-28T12:25:44.243Z,7.40
2023-01-28T12:28:16.919Z,7.41
2023-01-28T12:30:59.373Z,7.35
2023-01-28T12:33:47.572Z,7.14
2023-01-28T12:36:22.353Z,7.05
2023-01-28T12:38:54.301Z,6.98
2023-01-28T12:41:24.626Z,7.22
2023-01-28T12:43:55.129Z,6.96
2023-01-28T12:46:38.961Z,7.35
2023-01-28T12:49:08.145Z,7.44
2023-01-28T12:51:39.576Z,7.57
2023-01-28T12:54:10.201Z,8.37
2023-01-28T12:56:41.144Z,8.59
2023-01-28T12:59:12.536Z,8.99
2023-01-28T13:01:43.008Z,8.69
2023-01-28T13:04:14.932Z,8.93
2023-01-28T13:06:43.343Z,8.98
2023-01-28T13:09:15.212Z,9.00
2023-01-28T13:11:44.549Z,8.82
2023-01-28T13:14:13.807Z,9.00
2023-01-28T13:16:41.584Z,8.40
2023-01-28T13:19:22.856Z,8.80
2023-01-28T13:21:50.751Z,8.65
2023-01-28T13:24:32.804Z,8.25
2023-01-28T13:27:12.672Z,7.93
2023-01-28T13:29:40.670Z,8.26
2023-01-28T13:32:28.386Z,8.36
2023-01-28T13:34:59.281Z,8.29
2023-01-28T13:37:31.386Z,8.62
2023-01-28T13:40:03.141Z,8.82
2023-01-28T13:42:32.453Z,9.05
2023-01-28T13:45:19.952Z,9.21
2023-01-28T13:47:49.260Z,9.17
2023-01-28T13:50:17.779Z,9.20
2023-01-28T13:52:47.613Z,9.11
2023-01-28T13:55:33.701Z,9.15
2023-01-28T13:58:20.938Z,9.28
2023-01-28T14:01:27.259Z,8.95
2023-01-28T14:04:45.560Z,8.94
2023-01-28T14:07:38.291Z,8.85
2023-01-28T14:10:28.106Z,8.86
2023-01-28T14:13:13.861Z,8.84
2023-01-28T14:16:03.365Z,8.83
2023-01-28T14:18:33.751Z,8.61
2023-01-28T14:21:02.740Z,8.37
2023-01-28T14:23:32.297Z,8.93
2023-01-28T14:26:07.135Z,8.90
2023-01-28T14:28:42.397Z,8.85
2023-01-28T14:31:12.754Z,8.79
2023-01-28T14:33:40.600Z,8.76
2023-01-28T14:36:11.237Z,8.82
2023-01-28T14:38:40.516Z,8.86
2023-01-28T14:41:09.004Z,8.86
2023-01-28T14:43:38.261Z,8.82
2023-01-28T14:46:14.746Z,8.74
2023-01-28T14:48:45.948Z,8.67
2023-01-28T14:51:34.313Z,8.60
2023-01-28T14:54:18.778Z,8.48
2023-01-28T14:56:55.614Z,8.36
2023-01-28T14:59:26.123Z,8.01
2023-01-28T15:01:56.782Z,8.14
2023-01-28T15:04:25.930Z,8.04
2023-01-28T15:06:53.776Z,7.64
2023-01-28T15:09:22.167Z,7.88
2023-01-28T15:11:51.455Z,7.78
2023-01-28T15:14:22.729Z,7.55
2023-01-28T15:16:52.038Z,7.58
2023-01-28T15:19:23.207Z,7.56
2023-01-28T15:21:52.772Z,7.20
2023-01-28T15:24:20.484Z,7.47
2023-01-28T15:26:48.426Z,7.44
2023-01-28T15:29:25.178Z,7.12
2023-01-28T15:31:54.625Z,7.25
2023-01-28T15:34:23.460Z,7.25
2023-01-28T15:36:51.227Z,7.11
2023-01-28T15:39:20.280Z,7.05
2023-01-28T15:41:49.890Z,6.52
2023-01-28T15:44:18.886Z,7.04
2023-01-28T15:46:46.647Z,6.99
2023-01-28T15:49:20.016Z,6.94
2023-01-28T15:51:51.038Z,6.89
2023-01-28T15:54:19.349Z,6.59
2023-01-28T15:56:47.142Z,6.81
2023-01-28T15:59:25.127Z,6.47
2023-01-28T16:01:52.980Z,6.73
2023-01-28T16:04:30.367Z,6.68
2023-01-28T16:06:58.984Z,6.44
2023-01-28T16:09:28.500Z,6.56
2023-01-28T16:12:03.338Z,6.49
2023-01-28T16:14:32.393Z,6.47
2023-01-28T16:17:00.164Z,6.44
2023-01-28T16:19:38.620Z,4.88
2023-01-28T16:22:06.499Z,5.94
2023-01-28T16:24:36.205Z,6.39
2023-01-28T16:27:05.761Z,6.37
2023-01-28T16:29:33.519Z,6.36
2023-01-28T16:32:01.406Z,6.28
2023-01-28T16:34:29.272Z,6.30
2023-01-28T16:36:59.821Z,6.23
2023-01-28T16:39:27.663Z,6.20
2023-01-28T16:41:56.873Z,6.15
2023-01-28T16:44:24.931Z,5.62
2023-01-28T16:46:52.733Z,5.73
2023-01-28T16:49:20.538Z,5.90
2023-01-28T16:51:53.247Z,5.91
2023-01-28T16:54:26.744Z,5.49
2023-01-28T16:56:54.643Z,5.58
2023-01-28T16:59:23.481Z,5.76
2023-01-28T17:01:51.415Z,5.67
2023-01-28T17:04:19.264Z,5.68
2023-01-28T17:06:50.391Z,5.53
2023-01-28T17:09:19.032Z,5.60
2023-01-28T17:11:48.558Z,5.54
2023-01-28T17:14:16.335Z,5.53
2023-01-28T17:16:44.177Z,5.50
2023-01-28T17:19:12.158Z,5.44
2023-01-28T17:21:39.970Z,5.47
2023-01-28T17:24:08.844Z,5.14
2023-01-28T17:26:38.070Z,5.29
2023-01-28T17:29:07.250Z,5.42
2023-01-28T17:31:35.446Z,5.41
2023-01-28T17:34:05.504Z,5.39
2023-01-28T17:36:33.530Z,5.38
2023-01-28T17:39:02.534Z,5.34
2023-01-28T17:41:30.705Z,5.32
2023-01-28T17:43:59.541Z,5.29
2023-01-28T17:46:29.374Z,5.28
2023-01-28T17:48:57.258Z,5.25
2023-01-28T17:51:25.104Z,5.05
2023-01-28T17:53:53.819Z,5.20
2023-01-28T17:56:22.554Z,5.17
2023-01-28T17:58:51.666Z,5.12
2023-01-28T18:01:19.890Z,5.09
2023-01-28T18:03:49.089Z,5.07
2023-01-28T18:06:16.808Z,5.06
2023-01-28T18:08:45.733Z,4.97
2023-01-28T18:11:14.277Z,5.03
2023-01-28T18:13:42.161Z,4.98
2023-01-28T18:16:14.491Z,4.88
2023-01-28T18:18:42.242Z,4.65
2023-01-28T18:21:20.235Z,4.67
2023-01-28T18:23:47.957Z,4.89
2023-01-28T18:26:15.652Z,4.86
2023-01-28T18:28:43.616Z,4.86
2023-01-28T18:31:11.615Z,4.67
2023-01-28T18:33:39.915Z,4.66
2023-01-28T18:36:09.571Z,4.74
2023-01-28T18:38:38.892Z,4.78
2023-01-28T18:41:06.857Z,4.76
2023-01-28T18:43:35.462Z,4.73
2023-01-28T18:46:03.486Z,4.69
2023-01-28T18:48:37.076Z,4.38
2023-01-28T18:51:17.483Z,4.65
2023-01-28T18:53:59.093Z,4.50
2023-01-28T18:56:27.327Z,4.52
2023-01-28T18:58:58.117Z,4.59
2023-01-28T19:01:25.923Z,4.58
2023-01-28T19:03:54.776Z,4.55
2023-01-28T19:06:23.697Z,4.45
2023-01-28T19:08:53.436Z,4.55
2023-01-28T19:11:22.698Z,4.02
2023-01-28T19:13:50.562Z,4.52
2023-01-28T19:16:18.361Z,4.50
2023-01-28T19:18:46.518Z,4.49
2023-01-28T19:21:15.257Z,4.45
2023-01-28T19:23:49.950Z,4.44
2023-01-28T19:26:21.229Z,4.43
2023-01-28T19:28:50.658Z,4.40
2023-01-28T19:31:20.595Z,4.15
2023-01-28T19:33:48.400Z,4.35
2023-01-28T19:36:16.472Z,4.35
2023-01-28T19:38:45.029Z,4.14
2023-01-28T19:41:21.012Z,4.31
2023-01-28T19:43:50.267Z,4.30
2023-01-28T19:46:18.406Z,4.00
2023-01-28T19:48:46.418Z,4.24
2023-01-28T19:51:15.581Z,4.22
2023-01-28T19:53:44.262Z,4.22
2023-01-28T19:56:13.418Z,4.20
2023-01-28T19:58:42.186Z,4.20
2023-01-28T20:01:13.933Z,3.96
2023-01-28T20:03:42.720Z,4.15
2023-01-28T20:06:12.572Z,3.72
2023-01-28T20:08:40.481Z,3.97
2023-01-28T20:11:10.310Z,3.65
2023-01-28T20:13:43.405Z,4.09
2023-01-28T20:16:16.478Z,3.78
2023-01-28T20:18:44.527Z,4.08
2023-01-28T20:21:12.369Z,4.07
2023-01-28T20:23:41.371Z,3.92
2023-01-28T20:26:09.699Z,4.01
2023-01-28T20:28:37.703Z,3.99
2023-01-28T20:31:06.373Z,3.98
2023-01-28T20:33:35.565Z,3.62
2023-01-28T20:36:03.518Z,3.91
2023-01-28T20:38:31.459Z,3.92
2023-01-28T20:40:59.175Z,3.91
2023-01-28T20:43:28.675Z,3.84
2023-01-28T20:46:03.306Z,3.69
2023-01-28T20:48:31.236Z,3.89
2023-01-28T20:51:05.695Z,3.70
2023-01-28T20:53:33.629Z,3.85
2023-01-28T20:56:01.419Z,3.83
2023-01-28T20:58:29.249Z,3.70
2023-01-28T21:00:57.005Z,3.82
2023-01-28T21:03:24.991Z,3.79
2023-01-28T21:05:52.908Z,3.79
2023-01-28T21:08:22.053Z,3.75
2023-01-28T21:10:49.916Z,3.37
2023-01-28T21:13:17.656Z,3.77
2023-01-28T21:15:52.744Z,3.65
2023-01-28T21:18:20.496Z,3.73
2023-01-28T21:20:48.148Z,3.60
2023-01-28T21:23:16.032Z,3.70
2023-01-28T21:25:46.488Z,3.66
2023-01-28T21:28:14.378Z,3.67
2023-01-28T21:30:42.405Z,3.65
2023-01-28T21:33:10.578Z,3.64
2023-01-28T21:35:38.745Z,3.54
2023-01-28T21:38:06.564Z,3.62
2023-01-28T21:40:34.933Z,3.40
2023-01-28T21:43:04.021Z,3.59
2023-01-28T21:45:31.742Z,3.59
2023-01-28T21:47:59.510Z,3.56
2023-01-28T21:50:27.278Z,3.55
2023-01-28T21:52:55.360Z,3.53
2023-01-28T21:55:23.118Z,3.41
2023-01-28T21:58:10.987Z,3.51
2023-01-28T22:00:39.224Z,3.50
2023-01-28T22:03:07.060Z,3.49
2023-01-28T22:05:35.895Z,3.47
2023-01-28T22:08:03.633Z,3.47
2023-01-28T22:10:31.406Z,3.45
2023-01-28T22:12:59.164Z,3.44
2023-01-28T22:15:27.268Z,3.43
2023-01-28T22:17:56.514Z,3.40
2023-01-28T22:20:24.324Z,3.41
2023-01-28T22:22:52.080Z,3.39
2023-01-28T22:25:19.891Z,3.19
2023-01-28T22:27:47.756Z,3.37
2023-01-28T22:30:16.181Z,2.65
2023-01-28T22:32:44.094Z,2.53
2023-01-28T22:35:13.341Z,3.31
2023-01-28T22:37:41.201Z,3.32
2023-01-28T22:40:10.492Z,3.16
2023-01-28T22:42:38.254Z,3.29
2023-01-28T22:45:07.211Z,3.16
2023-01-28T22:47:35.137Z,3.27
2023-01-28T22:50:02.890Z,3.26
2023-01-28T22:52:31.996Z,3.21
2023-01-28T22:54:59.870Z,3.25
2023-01-28T22:57:27.618Z,3.15
2023-01-28T23:00:00.307Z,3.23
2023-01-28T23:02:28.502Z,3.01
2023-01-28T23:04:56.320Z,3.21
2023-01-28T23:07:24.145Z,2.99
2023-01-28T23:09:53.270Z,3.17
2023-01-28T23:12:20.943Z,3.11
2023-01-28T23:15:06.072Z,3.16
2023-01-28T23:17:51.608Z,3.13
2023-01-28T23:20:39.365Z,3.13
2023-01-28T23:23:24.854Z,3.08
2023-01-28T23:25:54.201Z,2.98
2023-01-28T23:28:22.039Z,3.08
2023-01-28T23:40:24.367Z,3.03
2023-01-28T23:42:53.608Z,3.03
2023-01-28T23:45:21.589Z,3.02
2023-01-28T23:47:49.276Z,3.03
2023-01-28T23:50:17.958Z,2.98
2023-01-28T23:52:45.696Z,2.66
2023-01-28T23:55:13.321Z,3.01
2023-01-28T23:57:40.984Z,3.01
